Time;durP1;ratioP1;P1;durP2;ratioP2;P2;SDS_P1;SDS_P2;PMS_P1;PMS_P2;Temp;Humidity;BMP_temperature;BMP_pressure;BME280_temperature;BME280_humidity;BME280_pressure;Samples;Min_cycle;Max_cycle;Signal;HPM_P1;HPM_P2
2023/10/17 00:00:38;;;;;;;;;;;;;;;7.98;61.06;97665.22;5115109;28;19924;-73
2023/10/17 00:03:06;;;;;;;;;;;;;;;7.81;61.88;97658.81;5114552;28;19981;-78
2023/10/17 00:05:33;;;;;;;;;;;;;;;7.70;62.32;97660.78;5111342;28;19996;-77
2023/10/17 00:08:00;;;;;;;;;;;;;;;7.46;63.69;97649.31;5112202;28;19930;-75
2023/10/17 00:10:31;;;;;;;;;;;;;;;7.20;64.71;97637.06;5110692;28;19957;-76
2023/10/17 00:13:18;;;;;;;;;;;;;;;7.30;64.19;97648.00;5100610;28;19925;-74
2023/10/17 00:15:46;;;;;;;;;;;;;;;7.17;63.63;97656.91;5090219;28;19924;-72
2023/10/17 00:18:18;;;;;;;;;;;;;;;7.09;63.30;97649.31;5109264;28;19942;-72
2023/10/17 00:20:46;;;;;;;;;;;;;;;7.22;62.64;97642.19;5111205;28;20390;-77
2023/10/17 00:23:16;;;;;;;;;;;;;;;6.88;63.67;97641.25;5109953;28;20437;-76
2023/10/17 00:25:45;;;;;;;;;;;;;;;6.98;63.12;97643.59;5111391;28;19927;-74
2023/10/17 00:28:13;;;;;;;;;;;;;;;6.77;63.89;97641.47;5109763;28;20034;-77
2023/10/17 00:30:41;;;;;;;;;;;;;;;6.85;63.27;97633.56;5110980;28;19924;-78
2023/10/17 00:33:12;;;;;;;;;;;;;;;6.99;63.26;97631.53;5110353;28;19989;-76
2023/10/17 00:35:45;;;;;;;;;;;;;;;7.10;63.43;97637.31;5092293;28;19924;-77
2023/10/17 00:38:15;;;;;;;;;;;;;;;7.01;63.24;97643.50;5092582;28;20007;-76
2023/10/17 00:43:13;;;;;;;;;;;;;;;7.18;62.22;97640.56;5110866;28;19923;-73
2023/10/17 00:45:41;;;;;;;;;;;;;;;7.24;62.81;97632.69;5109391;28;19923;-72
2023/10/17 00:48:17;;;;;;;;;;;;;;;7.29;63.20;97636.84;5092387;28;19923;-77
2023/10/17 00:50:46;;;;;;;;;;;;;;;7.67;61.32;97638.50;5092300;28;19923;-77
2023/10/17 00:53:13;;;;;;;;;;;;;;;7.76;60.80;97633.13;5091349;28;19924;-77
2023/10/17 00:55:49;;;;;;;;;;;;;;;7.68;61.22;97629.91;5110840;28;19924;-75
2023/10/17 00:58:18;;;;;;;;;;;;;;;7.43;61.81;97623.66;5074083;28;19924;-75
2023/10/17 01:00:53;;;;;;;;;;;;;;;7.72;61.05;97621.22;5110625;28;19928;-73
2023/10/17 01:03:21;;;;;;;;;;;;;;;7.90;61.12;97619.88;5125299;27;20307;-71
2023/10/17 01:06:21;;;;;;;;;;;;;;;7.65;60.12;97562.94;5110376;28;19928;-77
2023/10/17 01:08:44;;;;;;;;;;;;;;;7.91;60.22;97629.31;5110348;28;19924;-76
2023/10/17 01:11:20;;;;;;;;;;;;;;;7.81;61.26;97623.53;5109021;28;19924;-71
2023/10/17 01:13:54;;;;;;;;;;;;;;;7.79;60.75;97619.31;5110351;28;19927;-71
2023/10/17 01:16:24;;;;;;;;;;;;;;;7.96;60.34;97625.72;5109254;28;20371;-69
2023/10/17 01:18:53;;;;;;;;;;;;;;;7.96;60.18;97620.56;5069176;28;20331;-75
2023/10/17 01:21:21;;;;;;;;;;;;;;;7.97;59.49;97632.59;5104788;28;19930;-73
2023/10/17 01:23:49;;;;;;;;;;;;;;;8.04;60.14;97626.38;5108099;28;20018;-72
2023/10/17 01:26:29;;;;;;;;;;;;;;;8.04;60.17;97621.22;5108943;28;19928;-75
2023/10/17 01:28:58;;;;;;;;;;;;;;;8.17;60.12;97621.72;5108551;28;20368;-78
2023/10/17 01:31:25;;;;;;;;;;;;;;;8.06;59.71;97637.50;5125868;27;19923;-74
2023/10/17 01:33:59;;;;;;;;;;;;;;;7.85;60.28;97627.72;5109525;28;19924;-76
2023/10/17 01:36:26;;;;;;;;;;;;;;;7.72;60.62;97616.06;5109052;28;20018;-77
2023/10/17 01:38:54;;;;;;;;;;;;;;;7.44;61.71;97615.03;5125535;27;20378;-74
2023/10/17 01:41:22;;;;;;;;;;;;;;;7.35;62.60;97617.84;5108610;28;20304;-69
2023/10/17 01:43:50;;;;;;;;;;;;;;;7.39;62.65;97610.00;5109772;28;19923;-69
2023/10/17 01:46:23;;;;;;;;;;;;;;;7.36;62.98;97607.47;5108649;28;20002;-70
2023/10/17 01:48:54;;;;;;;;;;;;;;;7.25;62.80;97608.63;5109429;28;19924;-69
2023/10/17 01:51:23;;;;;;;;;;;;;;;7.22;63.67;97616.41;5090931;28;20409;-68
2023/10/17 01:53:51;;;;;;;;;;;;;;;7.29;63.75;97610.25;5090566;28;19924;-75
2023/10/17 01:56:29;;;;;;;;;;;;;;;7.22;63.96;97603.53;5125479;27;19973;-68
2023/10/17 01:59:04;;;;;;;;;;;;;;;7.37;62.87;97610.91;5089804;28;19924;-76
2023/10/17 02:01:36;;;;;;;;;;;;;;;7.29;64.13;97607.69;5125288;27;19930;-69
2023/10/17 02:04:10;;;;;;;;;;;;;;;7.23;63.70;97608.66;5086705;28;19975;-70
2023/10/17 02:06:38;;;;;;;;;;;;;;;6.95;63.95;97617.91;5068082;28;19956;-69
2023/10/17 02:12:00;;;;;;;;;;;;;;;6.88;65.35;97612.94;5089431;28;20014;-71
2023/10/17 02:14:27;;;;;;;;;;;;;;;6.69;65.15;97616.78;5109374;28;19931;-70
2023/10/17 02:16:55;;;;;;;;;;;;;;;6.68;66.04;97609.94;5108164;28;19973;-70
2023/10/17 02:19:25;;;;;;;;;;;;;;;6.46;67.10;97612.97;5124309;27;19923;-70
2023/10/17 02:22:16;;;;;;;;;;;;;;;6.55;67.51;97619.66;5107780;28;20398;-71
2023/10/17 02:24:43;;;;;;;;;;;;;;;6.62;67.52;97603.19;5123228;27;19930;-69
2023/10/17 02:27:12;;;;;;;;;;;;;;;6.55;68.13;97610.19;5108863;28;19923;-73
2023/10/17 02:29:46;;;;;;;;;;;;;;;6.44;69.29;97617.28;5107037;28;20026;-71
2023/10/17 02:32:13;;;;;;;;;;;;;;;6.50;69.93;97611.16;5108579;28;19924;-70
2023/10/17 02:34:43;;;;;;;;;;;;;;;6.51;70.24;97618.03;5108616;28;19930;-70
2023/10/17 02:37:11;;;;;;;;;;;;;;;6.39;69.28;97610.53;5089411;28;19943;-70
2023/10/17 02:39:38;;;;;;;;;;;;;;;6.26;70.41;97615.09;5108605;28;19930;-70
2023/10/17 02:42:09;;;;;;;;;;;;;;;6.13;72.13;97616.19;5123009;27;20359;-74
2023/10/17 02:44:43;;;;;;;;;;;;;;;6.36;71.27;97619.16;5090462;28;20015;-75
2023/10/17 02:47:11;;;;;;;;;;;;;;;6.44;71.20;97625.00;5089032;28;19930;-76
2023/10/17 02:49:40;;;;;;;;;;;;;;;6.52;70.75;97622.28;5090003;28;19930;-72
2023/10/17 02:52:07;;;;;;;;;;;;;;;6.51;70.05;97616.28;5089715;28;19924;-76
2023/10/17 02:54:56;;;;;;;;;;;;;;;6.47;70.32;97617.22;5105949;28;20009;-74
2023/10/17 02:57:24;;;;;;;;;;;;;;;6.62;70.80;97612.63;5090230;28;20367;-77
2023/10/17 02:59:57;;;;;;;;;;;;;;;6.56;70.51;97604.16;5107154;28;19924;-72
2023/10/17 03:02:36;;;;;;;;;;;;;;;6.74;69.99;97607.25;5090210;28;19973;-76
2023/10/17 03:05:11;;;;;;;;;;;;;;;6.87;70.82;97616.38;5107007;28;20323;-76
2023/10/17 03:07:42;;;;;;;;;;;;;;;6.73;69.70;97614.09;5107446;28;19977;-77
2023/10/17 03:10:20;;;;;;;;;;;;;;;6.84;68.75;97612.13;5108405;28;19967;-75
2023/10/17 03:12:55;;;;;;;;;;;;;;;6.99;69.00;97600.63;5106848;28;19923;-76
2023/10/17 03:15:23;;;;;;;;;;;;;;;6.90;68.85;97606.03;5103061;28;19924;-78
2023/10/17 03:17:53;;;;;;;;;;;;;;;6.85;68.77;97608.69;5080370;28;20474;-74
2023/10/17 03:20:22;;;;;;;;;;;;;;;7.00;68.13;97608.34;5123154;28;19989;-78
2023/10/17 03:22:50;;;;;;;;;;;;;;;7.10;68.26;97594.38;5108199;28;19931;-72
2023/10/17 03:25:20;;;;;;;;;;;;;;;7.14;67.94;97602.88;5106005;28;19924;-74
2023/10/17 03:27:50;;;;;;;;;;;;;;;6.89;68.35;97599.16;5107960;28;20305;-71
2023/10/17 03:30:19;;;;;;;;;;;;;;;6.93;67.82;97601.63;5122619;28;19928;-75
2023/10/17 03:33:05;;;;;;;;;;;;;;;6.59;68.46;97601.50;5112411;28;19924;-71
2023/10/17 03:35:36;;;;;;;;;;;;;;;6.55;68.17;97593.91;5075536;28;20024;-75
2023/10/17 03:38:03;;;;;;;;;;;;;;;6.45;69.40;97597.56;5059145;28;20295;-76
2023/10/17 03:40:35;;;;;;;;;;;;;;;6.36;69.41;97606.31;5076794;28;19924;-75
2023/10/17 03:43:12;;;;;;;;;;;;;;;5.27;68.71;97444.81;5096063;28;19928;-77
2023/10/17 03:45:52;;;;;;;;;;;;;;;5.99;70.31;97596.75;5112160;28;19972;-76
2023/10/17 03:48:23;;;;;;;;;;;;;;;5.94;70.13;97594.28;5113532;27;19931;-71
2023/10/17 03:51:08;;;;;;;;;;;;;;;5.83;70.70;97592.75;5089936;28;20000;-74
2023/10/17 03:53:42;;;;;;;;;;;;;;;5.90;71.05;97596.91;5091380;28;19931;-72
2023/10/17 03:56:23;;;;;;;;;;;;;;;5.78;71.86;97595.41;5089698;28;19990;-76
2023/10/17 03:59:18;;;;;;;;;;;;;;;5.62;72.51;97587.13;5074955;28;19973;-77
2023/10/17 04:01:49;;;;;;;;;;;;;;;5.77;72.26;97585.97;5089631;28;20019;-76
2023/10/17 04:04:30;;;;;;;;;;;;;;;5.66;72.54;97599.06;5085378;28;19928;-72
2023/10/17 04:06:57;;;;;;;;;;;;;;;5.50;72.76;97601.91;5090948;28;20325;-73
2023/10/17 04:12:06;;;;;;;;;;;;;;;5.64;72.63;97598.22;5072455;28;19931;-72
2023/10/17 04:14:50;;;;;;;;;;;;;;;5.82;72.55;97598.75;5092698;28;19924;-73
2023/10/17 04:17:23;;;;;;;;;;;;;;;5.60;73.00;97604.31;5071586;28;19959;-79
2023/10/17 04:19:58;;;;;;;;;;;;;;;5.72;72.47;97595.50;5093790;28;19925;-71
2023/10/17 04:22:29;;;;;;;;;;;;;;;5.78;72.53;97592.84;5089607;28;20407;-74
2023/10/17 04:25:00;;;;;;;;;;;;;;;5.43;73.54;97596.03;5109320;28;19931;-73
2023/10/17 04:27:32;;;;;;;;;;;;;;;5.70;72.78;97579.28;5110578;28;19924;-74
2023/10/17 04:30:00;;;;;;;;;;;;;;;5.96;72.29;97569.38;5096729;28;19924;-75
2023/10/17 04:32:33;;;;;;;;;;;;;;;6.22;71.46;97571.47;5090409;28;19928;-72
2023/10/17 04:35:02;;;;;;;;;;;;;;;5.96;72.69;97577.09;5107635;28;19927;-71
2023/10/17 04:37:32;;;;;;;;;;;;;;;5.90;72.83;97582.34;5110830;28;19923;-72
2023/10/17 04:45:20;;;;;;;;;;;;;;;5.97;72.57;97595.94;5070086;28;19971;-72
2023/10/17 04:47:47;;;;;;;;;;;;;;;6.14;71.92;97604.19;5069146;28;19983;-74
2023/10/17 04:50:16;;;;;;;;;;;;;;;6.15;70.74;97600.72;5110724;28;20333;-73
2023/10/17 04:52:46;;;;;;;;;;;;;;;6.38;70.75;97607.13;5093655;28;20411;-72
2023/10/17 04:55:30;;;;;;;;;;;;;;;6.44;69.74;97611.28;5115020;28;20275;-71
2023/10/17 04:58:23;;;;;;;;;;;;;;;6.44;69.37;97611.28;5112778;28;19981;-73
2023/10/17 05:01:34;;;;;;;;;;;;;;;6.27;70.20;97609.06;5071661;28;19925;-72
2023/10/17 05:03:50;;;;;;;;;;;;;;;6.32;69.18;97607.25;5092893;28;19923;-73
2023/10/17 05:06:21;;;;;;;;;;;;;;;6.02;70.54;97609.56;5109962;28;19923;-75
2023/10/17 05:09:00;;;;;;;;;;;;;;;6.06;71.08;97606.88;5109424;28;19931;-73
2023/10/17 06:18:56;;;;;;;;;;;;;;;8.37;67.34;97652.16;5106642;28;20396;-74
2023/10/17 06:27:00;;;;;;;;;;;;;;;8.33;67.64;97650.56;5107264;28;20390;-71
2023/10/17 06:32:15;;;;;;;;;;;;;;;8.28;68.12;97652.44;5106508;28;20392;-74
2023/10/17 06:34:45;;;;;;;;;;;;;;;8.25;68.28;97648.19;5107819;28;19932;-73
2023/10/17 06:37:19;;;;;;;;;;;;;;;8.29;69.26;97654.97;5107346;28;19928;-76
2023/10/17 06:39:47;;;;;;;;;;;;;;;8.58;68.35;97656.75;5089758;27;19935;-74
2023/10/17 06:42:14;;;;;;;;;;;;;;;8.73;67.25;97654.59;5089641;28;20386;-73
2023/10/17 06:45:01;;;;;;;;;;;;;;;8.87;66.63;97643.84;5098352;28;19974;-74
2023/10/17 06:47:31;;;;;;;;;;;;;;;9.30;66.32;97652.00;5087473;28;20023;-75
2023/10/17 06:52:57;;;;;;;;;;;;;;;9.99;63.92;97650.63;5107098;28;19928;-77
2023/10/17 06:55:43;;;;;;;;;;;;;;;10.21;63.27;97642.13;5107770;28;20316;-79
2023/10/17 06:58:11;;;;;;;;;;;;;;;10.42;62.41;97640.50;5087465;28;19992;-72
2023/10/17 07:00:51;;;;;;;;;;;;;;;10.20;63.05;97645.59;5089245;28;20318;-78
2023/10/17 07:03:27;;;;;;;;;;;;;;;10.34;63.73;97645.13;5107021;28;20322;-78
2023/10/17 07:06:03;;;;;;;;;;;;;;;10.76;61.62;97642.75;5106374;28;20006;-70
2023/10/17 07:08:36;;;;;;;;;;;;;;;10.96;61.49;97640.25;5107408;28;19923;-71
2023/10/17 07:11:05;;;;;;;;;;;;;;;11.07;60.36;97638.94;5105927;28;20010;-72
2023/10/17 07:14:10;;;;;;;;;;;;;;;11.16;60.28;97641.19;5107415;28;20407;-75
2023/10/17 07:24:33;;;;;;;;;;;;;;;12.01;59.18;97659.34;5104702;28;19928;-72
2023/10/17 07:27:01;;;;;;;;;;;;;;;11.95;59.61;97599.91;5106635;28;19924;-75
2023/10/17 07:29:33;;;;;;;;;;;;;;;12.44;56.75;97648.03;5086768;28;19978;-78
2023/10/17 07:32:09;;;;;;;;;;;;;;;12.18;56.93;97645.66;5106117;28;19946;-76
2023/10/17 07:34:36;;;;;;;;;;;;;;;12.37;56.05;97645.72;5088128;28;19924;-73
2023/10/17 07:37:22;;;;;;;;;;;;;;;12.50;56.84;97639.09;5041595;28;19924;-76
2023/10/17 07:40:18;;;;;;;;;;;;;;;12.32;56.76;97581.03;5080560;28;20421;-78
2023/10/17 07:42:46;;;;;;;;;;;;;;;12.92;54.77;97645.00;5087317;28;19924;-77
2023/10/17 07:45:14;;;;;;;;;;;;;;;13.06;55.11;97653.88;5106052;28;19984;-74
2023/10/17 07:47:51;;;;;;;;;;;;;;;13.20;54.72;97644.59;5106517;28;19923;-71
2023/10/17 07:50:20;;;;;;;;;;;;;;;13.13;54.06;97632.81;5086537;28;20396;-74
2023/10/17 07:52:51;;;;;;;;;;;;;;;13.26;54.68;97633.91;5106662;28;19928;-73
2023/10/17 07:55:19;;;;;;;;;;;;;;;13.40;53.55;97632.34;5096050;28;19974;-73
2023/10/17 07:57:51;;;;;;;;;;;;;;;13.40;52.88;97621.09;5072741;28;19924;-71
2023/10/17 08:00:33;;;;;;;;;;;;;;;13.28;53.39;97608.66;5095751;28;19924;-72
2023/10/17 08:03:07;;;;;;;;;;;;;;;13.62;52.84;97606.16;5104934;28;19931;-72
2023/10/17 08:05:37;;;;;;;;;;;;;;;13.25;51.86;97608.81;5106461;28;19928;-77
2023/10/17 08:08:08;;;;;;;;;;;;;;;13.47;50.26;97609.47;5086625;28;19923;-75
2023/10/17 08:10:35;;;;;;;;;;;;;;;13.77;48.78;97605.38;5106431;28;20434;-71
2023/10/17 08:13:03;;;;;;;;;;;;;;;14.03;48.17;97601.50;5105686;28;19939;-71
2023/10/17 08:15:37;;;;;;;;;;;;;;;14.22;49.08;97603.06;5105814;28;20402;-71
2023/10/17 08:18:14;;;;;;;;;;;;;;;14.31;48.64;97602.63;5106117;28;20298;-71
2023/10/17 08:23:19;;;;;;;;;;;;;;;14.20;46.69;97604.91;5082072;28;20008;-74
2023/10/17 08:25:53;;;;;;;;;;;;;;;14.16;45.99;97607.75;5086600;28;19924;-74
2023/10/17 08:28:35;;;;;;;;;;;;;;;14.19;46.34;97605.84;5084116;28;20439;-76
2023/10/17 08:31:17;;;;;;;;;;;;;;;13.74;47.08;97601.19;5083153;28;20410;-74
2023/10/17 08:34:02;;;;;;;;;;;;;;;13.77;47.72;97603.63;5087673;28;19924;-75
2023/10/17 08:36:53;;;;;;;;;;;;;;;14.04;47.96;97601.41;5089358;28;19935;-76
2023/10/17 08:41:57;;;;;;;;;;;;;;;13.80;48.41;97600.88;5087307;28;20018;-83
2023/10/17 08:44:28;;;;;;;;;;;;;;;14.13;49.87;97600.09;5089618;28;19981;-76
2023/10/17 08:46:59;;;;;;;;;;;;;;;14.39;47.85;97591.81;5062629;28;19925;-78
2023/10/17 08:49:31;;;;;;;;;;;;;;;14.66;50.49;97591.22;5049153;28;19925;-84
2023/10/17 08:52:03;;;;;;;;;;;;;;;14.84;46.66;97591.16;5047867;28;19925;-79
2023/10/17 08:54:32;;;;;;;;;;;;;;;15.02;46.71;97592.78;5049220;28;19925;-75
2023/10/17 08:57:02;;;;;;;;;;;;;;;14.78;46.07;97591.47;5063657;28;20010;-79
2023/10/17 09:00:23;;;;;;;;;;;;;;;14.90;45.79;97588.22;5062735;28;19925;-75
2023/10/17 09:02:29;;;;;;;;;;;;;;;15.04;46.07;97583.09;5045952;28;20358;-81
2023/10/17 09:05:11;;;;;;;;;;;;;;;14.97;45.56;97576.50;5052650;28;19924;-79
2023/10/17 09:07:43;;;;;;;;;;;;;;;14.89;45.69;97570.88;5089125;28;19928;-75
2023/10/17 09:10:21;;;;;;;;;;;;;;;14.84;45.89;97572.91;5103139;28;19924;-76
2023/10/17 09:16:08;;;;;;;;;;;;;;;14.56;46.02;97555.28;5089063;28;20474;-76
2023/10/17 09:18:42;;;;;;;;;;;;;;;14.71;46.34;97553.63;5087714;28;20019;-75
2023/10/17 09:21:09;;;;;;;;;;;;;;;15.08;45.39;97548.09;5087848;28;20354;-73
2023/10/17 09:23:38;;;;;;;;;;;;;;;14.67;45.32;97538.13;5087901;28;19954;-76
2023/10/17 09:26:12;;;;;;;;;;;;;;;14.77;45.07;97524.63;5086023;28;20376;-74
2023/10/17 09:28:42;;;;;;;;;;;;;;;15.18;45.04;97529.22;5088908;28;19996;-75
2023/10/17 09:31:12;;;;;;;;;;;;;;;15.36;44.35;97524.72;5107326;28;19997;-75
2023/10/17 09:33:43;;;;;;;;;;;;;;;15.56;43.03;97527.06;5091134;28;20610;-74
2023/10/17 09:36:13;;;;;;;;;;;;;;;15.27;43.61;97522.66;5107818;28;20462;-75
2023/10/17 09:38:46;;;;;;;;;;;;;;;14.81;44.04;97508.72;5108268;28;19969;-79
2023/10/17 09:41:17;;;;;;;;;;;;;;;14.81;44.13;97518.31;5108752;28;20014;-77
2023/10/17 09:43:50;;;;;;;;;;;;;;;15.07;44.02;97507.25;5123564;27;20002;-78
2023/10/17 09:46:25;;;;;;;;;;;;;;;15.14;43.22;97509.47;5089912;28;19964;-75
2023/10/17 09:48:52;;;;;;;;;;;;;;;15.03;43.42;97508.34;5107323;28;19930;-78
2023/10/17 09:51:21;;;;;;;;;;;;;;;14.79;43.27;97502.75;5109029;28;20017;-75
2023/10/17 09:53:53;;;;;;;;;;;;;;;14.73;42.87;97502.25;5107886;28;19931;-74
2023/10/17 09:56:27;;;;;;;;;;;;;;;14.91;43.00;97498.63;5106764;28;19930;-71
2023/10/17 09:58:56;;;;;;;;;;;;;;;15.05;42.37;97496.06;5090220;28;20021;-74
2023/10/17 10:01:24;;;;;;;;;;;;;;;15.23;42.11;97480.22;5088543;28;20306;-71
2023/10/17 10:03:56;;;;;;;;;;;;;;;15.51;42.06;97478.66;5108216;28;19924;-76
2023/10/17 10:06:30;;;;;;;;;;;;;;;15.16;42.10;97465.00;5107161;28;19946;-79
2023/10/17 10:08:59;;;;;;;;;;;;;;;15.16;42.33;97468.47;5108307;28;20338;-69
2023/10/17 10:11:45;;;;;;;;;;;;;;;15.45;42.58;97459.00;5089691;28;19950;-77
2023/10/17 10:14:11;;;;;;;;;;;;;;;15.36;41.81;97464.69;5088448;28;20018;-76
2023/10/17 10:16:54;;;;;;;;;;;;;;;15.44;41.60;97468.59;5108210;28;20445;-77
2023/10/17 10:19:24;;;;;;;;;;;;;;;15.41;42.20;97457.44;5106557;28;19998;-75
2023/10/17 10:21:54;;;;;;;;;;;;;;;15.60;41.15;97457.25;5107804;28;19931;-74
2023/10/17 10:24:24;;;;;;;;;;;;;;;15.57;41.37;97458.25;5107218;28;20499;-78
2023/10/17 10:27:15;;;;;;;;;;;;;;;15.89;39.70;97449.34;5088764;28;20359;-73
2023/10/17 10:29:43;;;;;;;;;;;;;;;15.55;40.39;97436.63;5059522;28;19931;-73
2023/10/17 10:32:25;;;;;;;;;;;;;;;15.47;40.35;97433.63;5103319;28;20374;-71
2023/10/17 10:34:56;;;;;;;;;;;;;;;15.25;40.34;97431.38;5107965;28;19981;-72
2023/10/17 10:37:25;;;;;;;;;;;;;;;15.25;39.74;97427.97;5107197;28;19924;-72
2023/10/17 10:40:12;;;;;;;;;;;;;;;15.26;40.08;97416.59;5088039;28;19950;-75
2023/10/17 10:42:43;;;;;;;;;;;;;;;15.45;40.29;97412.00;5089310;28;19931;-69
2023/10/17 10:45:23;;;;;;;;;;;;;;;15.72;39.71;97415.59;5105999;28;20336;-70
2023/10/17 10:47:57;;;;;;;;;;;;;;;15.98;39.33;97407.00;5089404;28;19928;-70
2023/10/17 10:50:29;;;;;;;;;;;;;;;16.16;38.50;97390.19;5106699;28;19927;-79
2023/10/17 10:52:59;;;;;;;;;;;;;;;16.17;37.40;97397.09;5088152;28;20386;-71
2023/10/17 10:55:27;;;;;;;;;;;;;;;15.92;37.22;97403.91;5107299;28;20412;-72
2023/10/17 10:57:58;;;;;;;;;;;;;;;15.51;38.17;97390.75;5106077;28;19924;-70
2023/10/17 11:00:27;;;;;;;;;;;;;;;15.35;39.23;97389.97;5107467;28;19923;-75
2023/10/17 11:02:54;;;;;;;;;;;;;;;14.88;39.49;97399.72;5105719;28;20402;-76
2023/10/17 11:05:23;;;;;;;;;;;;;;;15.13;39.05;97384.28;5106289;28;20330;-73
2023/10/17 11:08:03;;;;;;;;;;;;;;;15.41;38.42;97392.22;5089184;28;20379;-79
2023/10/17 11:10:31;;;;;;;;;;;;;;;15.42;38.56;97388.66;5106031;28;19955;-69
2023/10/17 11:16:20;;;;;;;;;;;;;;;15.65;37.74;97390.75;5101259;28;19934;-73
2023/10/17 11:18:53;;;;;;;;;;;;;;;15.69;38.05;97378.34;5106914;28;19924;-78
2023/10/17 11:21:23;;;;;;;;;;;;;;;16.02;38.41;97368.47;5089522;28;19939;-73
2023/10/17 11:23:54;;;;;;;;;;;;;;;16.14;37.80;97368.53;5105530;28;19970;-72
2023/10/17 11:26:26;;;;;;;;;;;;;;;16.25;37.01;97371.31;5122495;28;19923;-74
2023/10/17 11:28:57;;;;;;;;;;;;;;;16.14;37.27;97373.75;5105536;28;20422;-77
2023/10/17 11:31:25;;;;;;;;;;;;;;;15.99;37.83;97368.66;5106951;28;19959;-73
2023/10/17 11:33:52;;;;;;;;;;;;;;;15.81;38.36;97369.78;5088013;28;19959;-76
2023/10/17 11:36:21;;;;;;;;;;;;;;;15.75;39.00;97363.16;5106392;28;20314;-76
2023/10/17 11:38:58;;;;;;;;;;;;;;;16.08;39.23;97350.63;5107229;28;19924;-71
2023/10/17 11:41:30;;;;;;;;;;;;;;;16.19;39.49;97348.19;5087249;28;19951;-76
2023/10/17 11:44:04;;;;;;;;;;;;;;;16.19;39.12;97348.19;5107462;28;19924;-71
2023/10/17 11:46:35;;;;;;;;;;;;;;;16.21;39.59;97346.31;5105496;28;19925;-74
2023/10/17 11:49:21;;;;;;;;;;;;;;;16.16;39.67;97350.97;5122499;28;19970;-72
2023/10/17 11:52:04;;;;;;;;;;;;;;;15.69;40.75;97347.88;5106671;28;20314;-75
2023/10/17 11:54:32;;;;;;;;;;;;;;;15.94;41.18;97345.44;5087520;28;20416;-74
2023/10/17 11:57:10;;;;;;;;;;;;;;;15.96;41.62;97340.94;5107305;28;20302;-74
2023/10/17 11:59:38;;;;;;;;;;;;;;;16.16;41.18;97337.91;5105898;28;20004;-78
2023/10/17 12:02:05;;;;;;;;;;;;;;;16.11;41.51;97336.53;5108583;28;20474;-75
2023/10/17 12:04:33;;;;;;;;;;;;;;;15.88;42.28;97326.69;5110402;28;20663;-78
2023/10/17 12:07:01;;;;;;;;;;;;;;;15.86;42.32;97331.16;5109453;28;19931;-77
2023/10/17 12:09:31;;;;;;;;;;;;;;;15.82;42.39;97333.13;5103783;28;19924;-72
2023/10/17 12:11:59;;;;;;;;;;;;;;;15.79;42.44;97328.09;5098265;28;19968;-73
2023/10/17 12:14:26;;;;;;;;;;;;;;;15.74;43.24;97329.31;5111135;28;19924;-73
2023/10/17 12:16:58;;;;;;;;;;;;;;;15.83;42.73;97326.97;5091329;28;20704;-73
2023/10/17 12:19:26;;;;;;;;;;;;;;;15.91;42.26;97316.88;5110644;28;19946;-70
2023/10/17 12:21:54;;;;;;;;;;;;;;;15.68;43.05;97329.69;5110460;28;20015;-74
2023/10/17 12:24:28;;;;;;;;;;;;;;;15.82;42.56;97324.47;5125259;27;20015;-73
2023/10/17 12:26:55;;;;;;;;;;;;;;;15.84;42.49;97317.38;5092723;28;19930;-76
2023/10/17 12:29:25;;;;;;;;;;;;;;;15.90;42.83;97322.19;5109121;28;19975;-78
2023/10/17 12:32:00;;;;;;;;;;;;;;;15.68;42.80;97321.84;5092094;28;19924;-74
2023/10/17 12:34:28;;;;;;;;;;;;;;;15.85;42.46;97324.25;5109424;28;20245;-72
2023/10/17 12:37:17;;;;;;;;;;;;;;;15.64;42.48;97318.56;5091418;28;20407;-72
2023/10/17 12:40:23;;;;;;;;;;;;;;;15.68;42.39;97314.03;5109261;28;19927;-72
2023/10/17 12:43:01;;;;;;;;;;;;;;;15.33;43.35;97313.53;5124623;27;20283;-70
2023/10/17 12:45:30;;;;;;;;;;;;;;;15.48;43.42;97307.41;5109847;28;19924;-70
2023/10/17 12:47:57;;;;;;;;;;;;;;;15.70;42.96;97299.94;5091420;28;19980;-70
2023/10/17 12:50:24;;;;;;;;;;;;;;;15.71;42.84;97303.38;5108740;28;19957;-70
2023/10/17 12:52:51;;;;;;;;;;;;;;;15.76;42.57;97293.50;5110238;28;19924;-77
2023/10/17 12:55:21;;;;;;;;;;;;;;;15.63;43.22;97296.03;5108715;28;20013;-70
2023/10/17 12:57:48;;;;;;;;;;;;;;;15.83;42.88;97294.78;5125515;27;19927;-69
2023/10/17 13:00:15;;;;;;;;;;;;;;;15.81;43.05;97294.03;5108547;28;19928;-70
2023/10/17 13:02:42;;;;;;;;;;;;;;;15.56;43.46;97296.50;5109428;28;19931;-73
2023/10/17 13:05:11;;;;;;;;;;;;;;;15.67;43.56;97299.28;5109042;28;20299;-72
2023/10/17 13:07:40;;;;;;;;;;;;;;;15.42;43.73;97299.91;5086219;28;19924;-75
2023/10/17 13:10:08;;;;;;;;;;;;;;;15.35;43.75;97296.00;5068936;28;19932;-72
2023/10/17 13:12:39;;;;;;;;;;;;;;;15.54;43.67;97296.59;5070862;28;19923;-73
2023/10/17 13:15:08;;;;;;;;;;;;;;;15.66;43.22;97298.44;5109649;28;20482;-72
2023/10/17 13:17:36;;;;;;;;;;;;;;;15.70;43.18;97296.50;5105750;28;20402;-75
2023/10/17 13:20:07;;;;;;;;;;;;;;;15.79;43.25;97291.53;5109709;28;19930;-70
2023/10/17 13:22:47;;;;;;;;;;;;;;;15.61;43.59;97292.66;5108441;28;20007;-70
2023/10/17 13:25:14;;;;;;;;;;;;;;;15.75;42.98;97295.25;5087708;28;20425;-70
2023/10/17 13:27:42;;;;;;;;;;;;;;;15.81;43.14;97300.09;5082019;28;19955;-70
2023/10/17 13:30:09;;;;;;;;;;;;;;;15.38;43.23;97241.00;5089334;28;20342;-71
2023/10/17 13:32:36;;;;;;;;;;;;;;;15.78;43.04;97300.31;5109203;28;19924;-74
2023/10/17 13:35:03;;;;;;;;;;;;;;;14.18;42.97;97038.09;5108115;28;19968;-72
2023/10/17 13:37:32;;;;;;;;;;;;;;;15.90;43.01;97294.31;5090952;28;20022;-70
2023/10/17 13:40:15;;;;;;;;;;;;;;;15.92;43.00;97292.44;5090254;28;20347;-76
2023/10/17 13:43:04;;;;;;;;;;;;;;;15.99;43.29;97288.50;5106208;28;19951;-70
2023/10/17 13:45:44;;;;;;;;;;;;;;;15.83;43.44;97298.22;5107607;28;20425;-72
2023/10/17 13:48:13;;;;;;;;;;;;;;;15.76;43.74;97296.97;5106351;28;19923;-71
2023/10/17 13:50:40;;;;;;;;;;;;;;;15.69;44.21;97290.44;5107852;28;19923;-74
2023/10/17 13:53:09;;;;;;;;;;;;;;;15.67;44.06;97292.28;5089897;28;20448;-71
2023/10/17 13:55:38;;;;;;;;;;;;;;;15.75;44.17;97290.03;5107703;28;20431;-73
2023/10/17 13:58:05;;;;;;;;;;;;;;;15.48;45.03;97285.69;5090063;28;19932;-69
2023/10/17 14:00:44;;;;;;;;;;;;;;;15.59;44.59;97283.25;5088925;28;19976;-73
2023/10/17 14:03:12;;;;;;;;;;;;;;;15.86;44.47;97295.44;5090194;28;19923;-69
2023/10/17 14:05:42;;;;;;;;;;;;;;;15.48;45.18;97286.50;5107496;28;19924;-72
2023/10/17 14:08:13;;;;;;;;;;;;;;;15.60;44.94;97285.75;5089305;28;20042;-71
2023/10/17 14:10:43;;;;;;;;;;;;;;;15.63;44.92;97293.41;5106735;28;19923;-72
2023/10/17 14:13:12;;;;;;;;;;;;;;;15.59;44.87;97291.94;5106715;28;19951;-74
2023/10/17 14:15:39;;;;;;;;;;;;;;;15.53;45.34;97292.31;5108250;28;19924;-77
2023/10/17 14:18:13;;;;;;;;;;;;;;;15.59;45.04;97286.72;5088584;28;20394;-75
2023/10/17 14:23:29;;;;;;;;;;;;;;;15.52;45.20;97281.97;5107406;28;19924;-72
2023/10/17 14:26:09;;;;;;;;;;;;;;;15.46;45.08;97291.84;5106619;28;20024;-76
2023/10/17 14:28:37;;;;;;;;;;;;;;;15.46;45.03;97280.56;5089381;28;19923;-76
2023/10/17 14:31:05;;;;;;;;;;;;;;;15.49;44.87;97288.22;5106793;28;19943;-71
2023/10/17 14:33:32;;;;;;;;;;;;;;;15.62;44.74;97286.50;5107866;28;20364;-71
2023/10/17 14:36:03;;;;;;;;;;;;;;;15.54;44.88;97290.53;5071629;28;19923;-77
2023/10/17 14:38:34;;;;;;;;;;;;;;;15.59;44.58;97278.03;5088792;28;20463;-79
2023/10/17 14:41:35;;;;;;;;;;;;;;;15.58;44.90;97278.97;5095554;28;19968;-76
2023/10/17 14:44:36;;;;;;;;;;;;;;;15.50;44.96;97287.25;5096868;28;19932;-76
2023/10/17 14:47:17;;;;;;;;;;;;;;;15.56;44.93;97273.81;5088888;28;19930;-71
2023/10/17 14:49:46;;;;;;;;;;;;;;;15.50;44.77;97273.41;5099083;28;19924;-75
2023/10/17 14:52:16;;;;;;;;;;;;;;;15.45;44.68;97268.44;5088709;28;20702;-77
2023/10/17 14:54:48;;;;;;;;;;;;;;;15.59;44.72;97265.81;5090180;28;19951;-70
2023/10/17 14:57:16;;;;;;;;;;;;;;;15.60;45.00;97264.88;5106313;28;19927;-70
2023/10/17 14:59:44;;;;;;;;;;;;;;;15.49;44.59;97267.31;5108049;28;19932;-73
2023/10/17 15:02:14;;;;;;;;;;;;;;;15.37;45.46;97263.66;5106745;28;20583;-78
2023/10/17 15:04:41;;;;;;;;;;;;;;;15.45;45.42;97268.44;5102127;28;19930;-73
2023/10/17 15:07:09;;;;;;;;;;;;;;;15.43;45.25;97259.88;5090109;28;19931;-71
2023/10/17 15:09:36;;;;;;;;;;;;;;;15.33;45.26;97256.13;5097691;28;20014;-73
2023/10/17 15:12:05;;;;;;;;;;;;;;;15.30;45.08;97254.53;5116494;28;19966;-77